createdAt,value
2022-10-18T00:01:33.903Z,7.95
2022-10-18T00:04:01.267Z,8.90
2022-10-18T00:06:28.629Z,6.80
2022-10-18T00:08:56.110Z,17.55
2022-10-18T00:11:23.534Z,10.40
2022-10-18T00:13:50.935Z,16.00
2022-10-18T00:16:19.812Z,10.23
2022-10-18T00:18:47.946Z,8.60
2022-10-18T00:21:16.667Z,10.63
2022-10-18T00:23:44.488Z,8.40
2022-10-18T00:26:12.886Z,9.15
2022-10-18T00:28:40.690Z,16.20
2022-10-18T00:31:12.021Z,9.10
2022-10-18T00:33:41.247Z,6.18
2022-10-18T00:36:09.018Z,23.00
2022-10-18T00:38:36.488Z,28.48
2022-10-18T00:41:04.342Z,43.30
2022-10-18T00:43:31.844Z,9.32
2022-10-18T00:45:59.270Z,7.63
2022-10-18T00:48:26.826Z,6.43
2022-10-18T00:50:55.639Z,7.45
2022-10-18T00:53:23.818Z,8.33
2022-10-18T00:55:51.692Z,7.22
2022-10-18T00:58:20.177Z,9.77
2022-10-18T01:00:47.715Z,7.47
2022-10-18T01:03:15.095Z,8.00
2022-10-18T01:05:43.826Z,8.87
2022-10-18T01:08:28.954Z,7.10
2022-10-18T01:11:02.739Z,8.23
2022-10-18T01:13:34.352Z,8.98
2022-10-18T01:16:06.305Z,7.18
2022-10-18T01:18:36.917Z,10.00
2022-10-18T01:21:13.105Z,7.57
2022-10-18T01:23:54.711Z,9.07
2022-10-18T01:26:29.041Z,7.88
2022-10-18T01:29:00.253Z,8.48
2022-10-18T01:31:32.356Z,6.83
2022-10-18T01:36:32.355Z,7.18
2022-10-18T01:39:01.029Z,7.70
2022-10-18T01:41:29.254Z,6.90
2022-10-18T01:43:58.329Z,7.87
2022-10-18T01:46:26.663Z,7.90
2022-10-18T01:48:55.819Z,8.48
2022-10-18T01:51:24.938Z,7.30
2022-10-18T01:53:52.308Z,7.18
2022-10-18T01:56:26.476Z,8.03
2022-10-18T01:59:08.745Z,6.50
2022-10-18T02:01:42.148Z,6.68
2022-10-18T02:04:16.512Z,7.93
2022-10-18T02:06:44.679Z,6.53
2022-10-18T02:09:14.690Z,8.57
2022-10-18T02:11:42.495Z,9.75
2022-10-18T02:14:12.204Z,17.65
2022-10-18T02:16:41.634Z,10.60
2022-10-18T02:19:11.598Z,15.82
2022-10-18T02:21:41.902Z,10.80
2022-10-18T02:24:10.580Z,14.07
2022-10-18T02:26:38.081Z,45.45
2022-10-18T02:29:05.500Z,9.15
2022-10-18T02:31:34.295Z,11.55
2022-10-18T02:34:03.407Z,11.67
2022-10-18T02:36:33.403Z,12.98
2022-10-18T02:39:04.011Z,13.30
2022-10-18T02:41:31.862Z,8.65
2022-10-18T02:43:59.223Z,9.45
2022-10-18T02:48:59.212Z,10.13
2022-10-18T02:51:26.536Z,10.50
2022-10-18T02:53:54.015Z,9.10
2022-10-18T02:56:22.709Z,7.68
2022-10-18T02:58:50.058Z,8.77
2022-10-18T03:01:17.772Z,11.23
2022-10-18T03:03:45.152Z,11.27
2022-10-18T03:06:12.515Z,10.65
2022-10-18T03:08:39.853Z,12.73
2022-10-18T03:11:07.360Z,11.17
2022-10-18T03:13:36.030Z,13.57
2022-10-18T03:16:03.414Z,13.45
2022-10-18T03:18:30.774Z,15.20
2022-10-18T03:20:58.486Z,12.90
2022-10-18T03:23:25.901Z,14.57
2022-10-18T03:25:53.271Z,20.42
2022-10-18T03:28:20.601Z,17.77
2022-10-18T03:30:49.326Z,10.85
2022-10-18T03:33:16.651Z,14.35
2022-10-18T03:35:44.040Z,11.73
2022-10-18T03:38:11.768Z,12.02
2022-10-18T03:40:39.109Z,14.77
2022-10-18T03:43:06.463Z,14.45
2022-10-18T03:45:33.798Z,10.13
2022-10-18T03:48:02.487Z,15.97
2022-10-18T03:50:29.863Z,13.75
2022-10-18T03:52:57.422Z,10.35
2022-10-18T03:55:24.797Z,15.38
2022-10-18T03:57:52.209Z,10.85
2022-10-18T04:00:19.598Z,12.70
2022-10-18T04:02:49.679Z,13.45
2022-10-18T04:05:20.857Z,11.05
2022-10-18T04:07:48.230Z,9.90
2022-10-18T04:10:15.695Z,15.35
2022-10-18T04:12:43.043Z,15.63
2022-10-18T04:15:11.015Z,13.70
2022-10-18T04:17:38.344Z,16.92
2022-10-18T04:20:06.170Z,13.57
2022-10-18T04:22:34.868Z,16.95
2022-10-18T04:25:02.213Z,10.20
2022-10-18T04:27:29.722Z,11.57
2022-10-18T04:29:57.262Z,11.30
2022-10-18T04:32:26.627Z,13.65
2022-10-18T04:34:54.340Z,19.52
2022-10-18T04:37:21.706Z,29.87
2022-10-18T04:39:53.447Z,17.05
2022-10-18T04:42:21.451Z,18.27
2022-10-18T04:44:48.860Z,13.32
2022-10-18T04:47:16.209Z,14.18
2022-10-18T04:49:43.555Z,12.63
2022-10-18T04:52:11.084Z,15.40
2022-10-18T04:54:38.443Z,12.85
2022-10-18T04:57:07.131Z,12.15
2022-10-18T04:59:34.488Z,11.15
2022-10-18T05:04:29.180Z,9.52
2022-10-18T05:06:56.639Z,15.52
2022-10-18T05:09:24.786Z,10.32
2022-10-18T05:11:52.241Z,10.70
2022-10-18T05:14:21.029Z,11.10
2022-10-18T05:16:48.375Z,13.75
2022-10-18T05:19:15.719Z,11.40
2022-10-18T05:21:43.063Z,10.52
2022-10-18T05:24:12.100Z,12.20
2022-10-18T05:26:39.448Z,11.73
2022-10-18T05:29:07.199Z,15.15
2022-10-18T05:31:36.019Z,17.92
2022-10-18T05:34:03.371Z,18.85
2022-10-18T05:36:30.727Z,17.40
2022-10-18T05:39:01.005Z,9.27
2022-10-18T05:41:31.507Z,9.48
2022-10-18T05:43:58.842Z,14.77
2022-10-18T05:46:26.227Z,20.20
2022-10-18T05:48:54.907Z,10.13
2022-10-18T05:51:22.284Z,8.33
2022-10-18T05:53:49.742Z,10.82
2022-10-18T05:56:17.139Z,59.63
2022-10-18T05:58:44.499Z,13.10
2022-10-18T06:01:11.864Z,11.48
2022-10-18T06:03:39.360Z,9.20
2022-10-18T06:06:09.160Z,8.73
2022-10-18T06:08:37.142Z,8.57
2022-10-18T06:11:07.230Z,10.05
2022-10-18T06:13:34.623Z,12.48
2022-10-18T06:16:01.977Z,8.20
2022-10-18T06:18:29.739Z,10.68
2022-10-18T06:20:57.547Z,11.52
2022-10-18T06:23:26.431Z,9.52
2022-10-18T06:25:53.780Z,8.88
2022-10-18T06:28:21.588Z,9.33
2022-10-18T06:30:49.084Z,7.65
2022-10-18T06:33:16.418Z,10.20
2022-10-18T06:35:43.772Z,7.95
2022-10-18T06:38:11.136Z,8.85
2022-10-18T06:40:39.809Z,9.93
2022-10-18T06:43:19.993Z,8.25
2022-10-18T06:45:48.647Z,8.98
2022-10-18T06:48:16.223Z,9.50
2022-10-18T06:50:43.626Z,10.73
2022-10-18T06:53:10.980Z,11.20
2022-10-18T06:55:39.683Z,9.73
2022-10-18T06:58:07.008Z,11.05
2022-10-18T07:00:34.377Z,11.30
2022-10-18T07:03:01.737Z,10.57
2022-10-18T07:05:29.147Z,9.93
2022-10-18T07:07:56.740Z,9.88
2022-10-18T07:10:24.406Z,9.73
2022-10-18T07:12:59.231Z,10.30
2022-10-18T07:15:38.256Z,9.45
2022-10-18T07:18:05.639Z,13.43
2022-10-18T07:20:33.034Z,9.13
2022-10-18T07:23:00.403Z,12.43
2022-10-18T07:25:29.891Z,9.13
2022-10-18T07:27:59.384Z,9.43
2022-10-18T07:30:27.094Z,10.33
2022-10-18T07:32:54.447Z,9.65
2022-10-18T07:35:21.801Z,10.85
2022-10-18T07:37:49.143Z,10.43
2022-10-18T07:40:16.521Z,9.95
2022-10-18T07:42:43.891Z,10.77
2022-10-18T07:45:13.632Z,10.57
2022-10-18T07:47:41.436Z,11.07
2022-10-18T07:50:09.492Z,12.30
2022-10-18T07:52:36.851Z,14.35
2022-10-18T07:55:04.559Z,12.27
2022-10-18T07:57:32.187Z,13.50
2022-10-18T07:59:59.685Z,12.15
2022-10-18T08:02:28.408Z,12.77
2022-10-18T08:04:55.740Z,12.05
2022-10-18T08:07:23.164Z,13.40
2022-10-18T08:09:50.520Z,15.57
2022-10-18T08:12:17.924Z,15.95
2022-10-18T08:14:45.296Z,17.83
2022-10-18T08:17:12.610Z,17.10
2022-10-18T08:19:52.714Z,13.23
2022-10-18T08:22:28.711Z,15.27
2022-10-18T08:24:56.076Z,14.52
2022-10-18T08:27:25.477Z,15.63
2022-10-18T08:29:52.888Z,13.35
2022-10-18T08:32:20.385Z,14.07
2022-10-18T08:34:50.694Z,15.85
2022-10-18T08:37:18.076Z,11.88
2022-10-18T08:39:45.433Z,12.48
2022-10-18T08:42:34.847Z,15.25
2022-10-18T08:45:12.636Z,11.97
2022-10-18T08:47:46.320Z,11.80
2022-10-18T08:50:17.318Z,13.98
2022-10-18T08:52:46.476Z,17.33
2022-10-18T08:55:18.083Z,13.75
2022-10-18T08:57:45.933Z,10.73
2022-10-18T09:00:17.228Z,14.00
2022-10-18T09:02:51.789Z,11.80
2022-10-18T09:05:25.843Z,13.15
2022-10-18T09:08:09.412Z,13.40
2022-10-18T09:10:42.531Z,12.17
2022-10-18T09:13:18.474Z,10.32
2022-10-18T09:15:49.675Z,15.00
2022-10-18T09:18:23.861Z,10.20
2022-10-18T09:20:54.826Z,12.98
2022-10-18T09:23:23.016Z,9.30
2022-10-18T09:25:52.557Z,9.48
2022-10-18T09:28:25.072Z,8.75
2022-10-18T09:30:57.228Z,9.20
2022-10-18T09:33:35.825Z,10.18
2022-10-18T09:36:05.893Z,8.17
2022-10-18T09:38:43.562Z,7.32
2022-10-18T09:41:14.515Z,6.47
2022-10-18T09:43:47.430Z,6.72
2022-10-18T09:46:14.823Z,5.97
2022-10-18T09:48:46.012Z,7.50
2022-10-18T09:51:17.683Z,4.80
2022-10-18T09:53:52.224Z,5.72
2022-10-18T09:56:22.795Z,4.30
2022-10-18T09:58:51.432Z,6.93
2022-10-18T10:01:20.563Z,4.40
2022-10-18T10:03:48.343Z,5.55
2022-10-18T10:06:24.039Z,5.65
2022-10-18T10:08:55.527Z,6.90
2022-10-18T10:11:46.700Z,4.85
2022-10-18T10:16:45.578Z,5.28
2022-10-18T10:19:20.454Z,6.38
2022-10-18T10:21:51.012Z,6.50
2022-10-18T10:24:31.340Z,5.82
2022-10-18T10:27:06.712Z,3.50
2022-10-18T10:30:07.263Z,5.32
2022-10-18T10:32:45.793Z,4.78
2022-10-18T10:35:34.036Z,4.03
2022-10-18T10:38:23.057Z,4.53
2022-10-18T10:40:50.981Z,4.20
2022-10-18T10:43:36.491Z,6.82
2022-10-18T10:46:07.289Z,4.53
2022-10-18T10:48:40.110Z,4.70
2022-10-18T10:51:08.947Z,4.78
2022-10-18T10:53:39.500Z,3.77
2022-10-18T10:56:07.967Z,3.40
2022-10-18T10:58:36.884Z,3.95
2022-10-18T11:01:18.166Z,3.83
2022-10-18T11:03:47.269Z,3.95
2022-10-18T11:06:27.298Z,3.17
2022-10-18T11:08:57.403Z,4.78
2022-10-18T11:11:28.444Z,3.83
2022-10-18T11:14:13.798Z,7.72
2022-10-18T11:16:51.107Z,4.38
2022-10-18T11:19:28.476Z,4.67
2022-10-18T11:21:56.702Z,4.40
2022-10-18T11:24:25.794Z,4.82
2022-10-18T11:26:57.671Z,4.30
2022-10-18T11:29:30.818Z,3.58
2022-10-18T11:32:03.715Z,5.00
2022-10-18T11:34:43.834Z,3.88
2022-10-18T11:37:34.532Z,3.67
2022-10-18T11:40:09.354Z,4.57
2022-10-18T11:42:42.561Z,6.97
2022-10-18T11:45:17.929Z,4.93
2022-10-18T11:47:52.294Z,4.13
2022-10-18T11:50:26.542Z,3.42
2022-10-18T11:52:57.459Z,3.78
2022-10-18T11:55:33.307Z,4.93
2022-10-18T11:58:04.825Z,4.00
2022-10-18T12:00:41.479Z,5.57
2022-10-18T12:03:16.395Z,4.07
2022-10-18T12:05:45.153Z,5.22
2022-10-18T12:08:14.256Z,5.57
2022-10-18T12:10:59.990Z,4.60
2022-10-18T12:13:34.583Z,3.72
2022-10-18T12:16:03.622Z,5.47
2022-10-18T12:18:31.261Z,2.88
2022-10-18T12:20:59.868Z,4.05
2022-10-18T12:23:34.448Z,3.67
2022-10-18T12:26:04.000Z,6.25
2022-10-18T12:28:35.104Z,4.63
2022-10-18T12:31:07.603Z,3.38
2022-10-18T12:33:36.828Z,6.72
2022-10-18T12:36:12.574Z,3.77
2022-10-18T12:38:42.540Z,5.35
2022-10-18T12:41:17.659Z,5.18
2022-10-18T12:43:51.615Z,3.72
2022-10-18T12:46:19.009Z,3.65
2022-10-18T12:49:03.938Z,4.40
2022-10-18T12:51:31.385Z,5.35
2022-10-18T12:54:10.187Z,5.68
2022-10-18T12:56:42.093Z,3.45
2022-10-18T12:59:28.012Z,3.92
2022-10-18T13:02:20.628Z,6.57
2022-10-18T13:04:48.292Z,3.78
2022-10-18T13:07:21.479Z,7.55
2022-10-18T13:10:07.536Z,5.60
2022-10-18T13:12:52.884Z,3.33
2022-10-18T13:15:34.360Z,4.53
2022-10-18T13:18:04.951Z,5.20
2022-10-18T13:20:34.619Z,4.82
2022-10-18T13:23:07.725Z,2.72
2022-10-18T13:25:39.387Z,4.95
2022-10-18T13:28:21.205Z,4.63
2022-10-18T13:30:52.108Z,6.35
2022-10-18T13:33:27.576Z,2.83
2022-10-18T13:35:56.306Z,4.20
2022-10-18T13:38:42.310Z,4.13
2022-10-18T13:41:10.765Z,4.60
2022-10-18T13:43:55.946Z,4.90
2022-10-18T13:46:23.901Z,6.60
2022-10-18T13:48:52.119Z,6.63
2022-10-18T13:51:34.398Z,2.78
2022-10-18T13:54:04.705Z,5.90
2022-10-18T13:56:47.033Z,5.05
2022-10-18T13:59:26.817Z,5.20
2022-10-18T14:02:06.610Z,7.63
2022-10-18T14:04:39.372Z,5.03
2022-10-18T14:07:07.320Z,4.33
2022-10-18T14:09:54.971Z,4.72
2022-10-18T14:12:26.824Z,7.22
2022-10-18T14:14:58.847Z,4.78
2022-10-18T14:17:30.433Z,4.25
2022-10-18T14:20:00.791Z,4.47
2022-10-18T14:22:30.533Z,4.65
2022-10-18T14:24:58.936Z,3.88
2022-10-18T14:27:27.536Z,4.68
2022-10-18T14:30:10.665Z,4.15
2022-10-18T14:32:38.087Z,3.97
2022-10-18T14:35:32.985Z,4.28
2022-10-18T14:38:01.390Z,4.65
2022-10-18T14:40:30.261Z,5.25
2022-10-18T14:42:57.747Z,3.45
2022-10-18T14:45:26.526Z,4.60
2022-10-18T14:47:54.030Z,5.43
2022-10-18T14:50:22.136Z,5.13
2022-10-18T14:52:49.791Z,5.30
2022-10-18T14:55:19.334Z,5.78
2022-10-18T14:57:47.154Z,2.13
2022-10-18T15:00:21.232Z,5.63
2022-10-18T15:02:50.314Z,4.55
2022-10-18T15:05:20.541Z,6.65
2022-10-18T15:07:48.251Z,4.45
2022-10-18T15:10:17.074Z,4.90
2022-10-18T15:13:08.274Z,4.13
2022-10-18T15:15:33.705Z,3.58
2022-10-18T15:18:02.720Z,4.18
2022-10-18T15:20:31.496Z,4.00
2022-10-18T15:23:13.768Z,6.30
2022-10-18T15:25:41.218Z,3.50
2022-10-18T15:28:20.852Z,3.17
2022-10-18T15:30:48.260Z,4.45
2022-10-18T15:33:22.302Z,4.38
2022-10-18T15:35:49.966Z,5.33
2022-10-18T15:38:18.206Z,6.20
2022-10-18T15:40:45.580Z,9.70
2022-10-18T15:43:36.327Z,5.90
2022-10-18T15:46:06.566Z,5.43
2022-10-18T15:48:36.986Z,4.43
2022-10-18T15:51:05.355Z,4.85
2022-10-18T15:53:35.468Z,5.28
2022-10-18T15:56:04.283Z,4.10
2022-10-18T15:58:37.893Z,6.43
2022-10-18T16:01:06.022Z,6.97
2022-10-18T16:03:34.739Z,6.22
2022-10-18T16:06:06.314Z,5.10
2022-10-18T16:08:40.469Z,4.45
2022-10-18T16:11:08.268Z,4.03
2022-10-18T16:13:35.919Z,3.17
2022-10-18T16:16:03.271Z,4.63
2022-10-18T16:18:30.582Z,5.97
2022-10-18T16:20:57.918Z,5.25
2022-10-18T16:23:28.428Z,6.32
2022-10-18T16:25:56.161Z,3.97
2022-10-18T16:28:24.444Z,4.80
2022-10-18T16:30:56.600Z,4.30
2022-10-18T16:33:24.158Z,6.60
2022-10-18T16:35:51.597Z,5.43
2022-10-18T16:38:26.655Z,7.73
2022-10-18T16:40:56.602Z,7.32
2022-10-18T16:43:24.300Z,4.35
2022-10-18T16:45:53.064Z,4.85
2022-10-18T16:48:21.643Z,4.45
2022-10-18T16:50:49.802Z,4.67
2022-10-18T16:53:17.148Z,6.22
2022-10-18T16:55:44.992Z,8.93
2022-10-18T16:58:16.555Z,5.20
2022-10-18T17:00:44.783Z,3.78
2022-10-18T17:03:12.629Z,4.53
2022-10-18T17:05:40.098Z,6.43
2022-10-18T17:08:07.518Z,13.02
2022-10-18T17:10:34.919Z,7.68
2022-10-18T17:13:02.253Z,5.70
2022-10-18T17:15:32.891Z,6.83
2022-10-18T17:18:03.807Z,7.90
2022-10-18T17:20:31.184Z,6.15
2022-10-18T17:22:58.567Z,7.95
2022-10-18T17:25:25.941Z,7.13
2022-10-18T17:27:53.321Z,7.60
2022-10-18T17:30:20.771Z,7.03
2022-10-18T17:32:49.495Z,6.85
2022-10-18T17:35:17.187Z,6.65
2022-10-18T17:37:47.661Z,8.05
2022-10-18T17:40:15.037Z,6.83
2022-10-18T17:42:42.852Z,7.57
2022-10-18T17:45:10.690Z,5.88
2022-10-18T17:47:38.051Z,7.28
2022-10-18T17:50:07.047Z,6.38
2022-10-18T17:52:34.423Z,7.83
2022-10-18T17:55:01.916Z,8.52
2022-10-18T17:57:29.300Z,7.70
2022-10-18T17:59:58.570Z,7.13
2022-10-18T18:02:25.928Z,6.63
2022-10-18T18:04:54.705Z,7.30
2022-10-18T18:07:23.392Z,7.43
2022-10-18T18:09:50.732Z,5.80
2022-10-18T18:12:18.120Z,6.30
2022-10-18T18:14:45.566Z,8.35
2022-10-18T18:17:12.938Z,7.90
2022-10-18T18:19:40.334Z,8.63
2022-10-18T18:22:08.129Z,7.05
2022-10-18T18:24:36.850Z,7.05
2022-10-18T18:27:04.217Z,6.22
2022-10-18T18:29:31.608Z,8.63
2022-10-18T18:31:59.685Z,10.17
2022-10-18T18:34:27.042Z,8.50
2022-10-18T18:36:54.408Z,8.52
2022-10-18T18:39:22.897Z,7.90
2022-10-18T18:41:52.151Z,9.98
2022-10-18T18:44:20.300Z,6.40
2022-10-18T18:46:48.010Z,9.15
2022-10-18T18:49:15.508Z,7.60
2022-10-18T18:51:42.902Z,6.63
2022-10-18T18:54:12.199Z,8.32
2022-10-18T18:56:39.745Z,6.17
2022-10-18T18:59:08.935Z,8.52
2022-10-18T19:01:37.035Z,7.18
2022-10-18T19:04:05.422Z,5.80
2022-10-18T19:06:33.784Z,6.95
2022-10-18T19:09:04.140Z,8.43
2022-10-18T19:11:32.909Z,9.63
2022-10-18T19:14:00.295Z,7.40
2022-10-18T19:16:29.921Z,7.60
2022-10-18T19:18:58.738Z,10.18
2022-10-18T19:21:26.986Z,7.83
2022-10-18T19:23:56.006Z,9.95
2022-10-18T19:26:26.483Z,9.18
2022-10-18T19:28:54.010Z,8.05
2022-10-18T19:31:21.815Z,14.02
2022-10-18T19:33:59.393Z,9.67
2022-10-18T19:36:27.577Z,9.20
2022-10-18T19:38:55.002Z,10.63
2022-10-18T19:43:51.040Z,9.40
2022-10-18T19:46:18.465Z,8.67
2022-10-18T19:48:45.833Z,9.80
2022-10-18T19:51:19.391Z,12.18
2022-10-18T19:53:50.361Z,9.43
2022-10-18T19:56:19.224Z,12.55
2022-10-18T19:58:46.668Z,7.97
2022-10-18T20:01:14.422Z,10.38
2022-10-18T20:03:42.479Z,9.98
2022-10-18T20:06:10.012Z,9.88
2022-10-18T20:08:39.091Z,10.43
2022-10-18T20:11:07.874Z,13.20
2022-10-18T20:13:35.545Z,10.98
2022-10-18T20:16:03.727Z,9.35
2022-10-18T20:18:31.098Z,11.35
2022-10-18T20:20:58.444Z,12.25
2022-10-18T20:23:26.015Z,9.77
2022-10-18T20:25:58.776Z,10.07
2022-10-18T20:28:26.319Z,12.75
2022-10-18T20:31:01.072Z,9.82
2022-10-18T20:33:29.046Z,12.85
2022-10-18T20:35:56.501Z,12.07
2022-10-18T20:38:23.972Z,10.63
2022-10-18T20:40:51.333Z,12.40
2022-10-18T20:43:20.127Z,15.60
2022-10-18T20:45:47.507Z,12.98
2022-10-18T20:48:14.868Z,16.27
2022-10-18T20:50:43.081Z,12.45
2022-10-18T20:53:10.430Z,12.13
2022-10-18T20:55:38.955Z,11.35
2022-10-18T20:58:07.098Z,14.60
2022-10-18T21:00:35.990Z,11.07
2022-10-18T21:03:03.362Z,12.63
2022-10-18T21:05:31.027Z,14.85
2022-10-18T21:07:58.593Z,11.07
2022-10-18T21:10:26.395Z,12.50
2022-10-18T21:12:53.950Z,13.83
2022-10-18T21:15:21.266Z,11.27
2022-10-18T21:17:52.111Z,11.45
2022-10-18T21:20:19.575Z,15.15
2022-10-18T21:22:46.933Z,11.93
2022-10-18T21:25:14.381Z,15.63
2022-10-18T21:27:41.762Z,13.75
2022-10-18T21:30:09.651Z,14.02
2022-10-18T21:32:36.986Z,12.60
2022-10-18T21:35:06.262Z,12.32
2022-10-18T21:37:33.670Z,12.17
2022-10-18T21:40:01.422Z,15.10
2022-10-18T21:42:28.799Z,11.43
2022-10-18T21:44:56.159Z,14.32
2022-10-18T21:47:23.500Z,14.10
2022-10-18T21:49:50.835Z,16.27
2022-10-18T21:52:19.498Z,13.93
2022-10-18T21:54:46.822Z,17.08
2022-10-18T21:57:14.162Z,17.00
2022-10-18T21:59:41.492Z,18.67
2022-10-18T22:02:08.840Z,17.70
2022-10-18T22:04:36.514Z,12.32
2022-10-18T22:07:04.669Z,17.17
2022-10-18T22:09:33.418Z,14.07
2022-10-18T22:12:00.843Z,13.80
2022-10-18T22:14:28.232Z,14.80
2022-10-18T22:16:55.658Z,17.95
2022-10-18T22:19:23.034Z,17.88
2022-10-18T22:21:50.448Z,14.52
2022-10-18T22:24:18.123Z,13.05
2022-10-18T22:26:46.976Z,14.13
2022-10-18T22:29:15.601Z,13.05
2022-10-18T22:31:43.956Z,14.27
2022-10-18T22:34:12.391Z,12.57
2022-10-18T22:36:39.853Z,13.25
2022-10-18T22:39:07.738Z,14.33
2022-10-18T22:41:35.574Z,14.60
2022-10-18T22:44:04.667Z,14.13
2022-10-18T22:46:32.573Z,15.45
2022-10-18T22:48:59.924Z,15.48
2022-10-18T22:51:27.532Z,14.00
2022-10-18T22:53:54.934Z,15.30
2022-10-18T22:56:22.851Z,15.32
2022-10-18T22:58:50.484Z,12.80
2022-10-18T23:01:20.220Z,12.57
2022-10-18T23:03:47.738Z,11.97
2022-10-18T23:06:19.287Z,14.70
2022-10-18T23:08:46.630Z,14.23
2022-10-18T23:11:14.072Z,14.45
2022-10-18T23:13:41.462Z,15.88
2022-10-18T23:16:09.266Z,14.90
2022-10-18T23:21:06.279Z,14.40
2022-10-18T23:23:35.389Z,15.57
2022-10-18T23:26:03.481Z,17.67
2022-10-18T23:28:31.004Z,14.30
2022-10-18T23:30:58.389Z,19.90
2022-10-18T23:33:26.129Z,13.80
2022-10-18T23:35:54.819Z,14.98
2022-10-18T23:38:22.188Z,15.02
2022-10-18T23:40:49.562Z,15.53
2022-10-18T23:43:16.964Z,17.63
2022-10-18T23:48:17.533Z,17.50
2022-10-18T23:50:44.902Z,12.85
2022-10-18T23:53:13.610Z,13.40
2022-10-18T23:55:40.997Z,13.85
2022-10-18T23:58:08.482Z,13.70
